Aviation Digital Data Service (ADDS)

Output produced by METARs form (0534 UTC 11 December 2017)
found at http://www.aviationweather.gov/adds/metars/
 
OSDI 110500Z 04004KT CAVOK M03/M08 Q1026
OSDI 110315Z 1106/1212 VRB03KT CAVOK 
     TEMPO 1112/1118 23012KT 9999 SCT030 
     BECMG 1208/1210 26018KT 9999 SCT030 BKN100
       
OSKL 110300Z 33010KT CAVOK 01/M02 Q1025
OSLK 110500Z 07004KT CAVOK 08/01 Q1025
OSLK 110315Z 1106/1206 33008KT 9999 SCT030
       
OSLK 110500Z 07004KT CAVOK 08/01 Q1025
OSLK 110315Z 1106/1206 33008KT 9999 SCT030
       
OSDI 110500Z 04004KT CAVOK M03/M08 Q1026
OSDI 110315Z 1106/1212 VRB03KT CAVOK 
     TEMPO 1112/1118 23012KT 9999 SCT030 
     BECMG 1208/1210 26018KT 9999 SCT030 BKN100
       
OSKL 110300Z 33010KT CAVOK 01/M02 Q1025